Terminal Aerodrome Forecast
Issued by NWS

Home | Current Version | Previous Version | Text Only | Print | Product List | Glossary On
Versions: 1 2 3 4 5 6 7 8 9 10 11 12 13
759
FTUS41 KBTV 232331
TAFMSS
TAF
KMSS 232331Z 2400/2424 22004KT P6SM BKN080
     FM240400 VRB03KT P6SM SCT080 SCT250
     FM241400 05005KT P6SM BKN080 BKN250=

USA.gov is the U.S. government's official web portal to all federal, state and local government web resources and services.